createdAt,value
2018-07-19T00:01:20.218Z,68.13
2018-07-19T00:03:50.845Z,69.03
2018-07-19T00:06:20.255Z,69.12
2018-07-19T00:08:49.903Z,69.68
2018-07-19T00:11:20.954Z,71.03
2018-07-19T00:13:50.729Z,69.49
2018-07-19T00:16:20.399Z,70.49
2018-07-19T00:18:50.491Z,70.85
2018-07-19T00:21:20.687Z,72.37
2018-07-19T00:23:50.294Z,74.70
2018-07-19T00:26:20.211Z,71.48
2018-07-19T00:28:49.716Z,71.66
2018-07-19T00:31:18.724Z,71.97
2018-07-19T00:33:47.259Z,71.99
2018-07-19T00:36:16.231Z,70.20
2018-07-19T00:38:44.791Z,70.19
2018-07-19T00:41:15.639Z,69.91
2018-07-19T00:43:44.281Z,69.76
2018-07-19T00:46:13.217Z,70.94
2018-07-19T00:48:41.784Z,69.78
2018-07-19T00:51:10.696Z,68.97
2018-07-19T00:53:39.252Z,69.86
2018-07-19T00:56:07.873Z,69.15
2018-07-19T00:58:38.655Z,69.14
2018-07-19T01:01:07.477Z,71.78
2018-07-19T01:03:36.068Z,72.16
2018-07-19T01:06:06.419Z,71.89
2018-07-19T01:08:35.051Z,72.32
2018-07-19T01:11:03.637Z,72.13
2018-07-19T01:13:32.177Z,73.07
2018-07-19T01:16:02.154Z,73.80
2018-07-19T01:18:30.774Z,75.14
2018-07-19T01:20:59.366Z,75.21
2018-07-19T01:23:27.928Z,75.15
2018-07-19T01:25:56.551Z,77.24
2018-07-19T01:28:25.212Z,77.00
2018-07-19T01:30:53.812Z,75.64
2018-07-19T01:33:22.520Z,75.27
2018-07-19T01:35:51.681Z,76.22
2018-07-19T01:38:20.553Z,75.25
2018-07-19T01:40:50.681Z,74.71
2018-07-19T01:43:19.379Z,74.72
2018-07-19T01:45:47.972Z,76.05
2018-07-19T01:48:16.493Z,76.75
2018-07-19T01:50:45.056Z,78.04
2018-07-19T01:53:13.589Z,76.97
2018-07-19T01:55:42.156Z,76.76
2018-07-19T01:58:10.701Z,76.64
2018-07-19T02:00:39.260Z,75.32
2018-07-19T02:03:07.813Z,74.33
2018-07-19T02:05:36.341Z,73.68
2018-07-19T02:08:04.925Z,73.52
2018-07-19T02:10:33.446Z,74.06
2018-07-19T02:13:02.032Z,74.14
2018-07-19T02:15:30.565Z,74.75
2018-07-19T02:17:59.136Z,74.60
2018-07-19T02:20:27.652Z,74.10
2018-07-19T02:22:56.228Z,74.80
2018-07-19T02:25:24.759Z,75.53
2018-07-19T02:27:53.579Z,74.89
2018-07-19T02:30:22.092Z,74.06
2018-07-19T02:32:51.640Z,73.84
2018-07-19T02:35:20.168Z,77.14
2018-07-19T02:37:48.769Z,75.71
2018-07-19T02:40:17.320Z,74.85
2018-07-19T02:42:45.878Z,76.33
2018-07-19T02:45:14.402Z,76.80
2018-07-19T02:47:42.968Z,75.25
2018-07-19T02:50:11.512Z,75.74
2018-07-19T02:52:40.125Z,75.86
2018-07-19T02:55:08.712Z,75.76
2018-07-19T02:57:37.353Z,76.21
2018-07-19T03:00:06.028Z,76.49
2018-07-19T03:02:34.616Z,76.85
2018-07-19T03:05:03.176Z,77.41
2018-07-19T03:07:31.748Z,76.45
2018-07-19T03:10:00.272Z,76.05
2018-07-19T03:12:28.824Z,77.19
2018-07-19T03:14:57.358Z,76.79
2018-07-19T03:17:25.925Z,75.90
2018-07-19T03:19:54.455Z,75.55
2018-07-19T03:22:23.412Z,76.84
2018-07-19T03:24:51.940Z,76.37
2018-07-19T03:27:20.495Z,76.69
2018-07-19T03:29:48.999Z,75.56
2018-07-19T03:32:17.568Z,76.58
2018-07-19T03:34:46.088Z,76.57
2018-07-19T03:37:14.689Z,76.21
2018-07-19T03:39:43.423Z,78.13
2018-07-19T03:42:11.984Z,76.63
2018-07-19T03:44:40.516Z,76.08
2018-07-19T03:47:09.073Z,77.18
2018-07-19T03:49:37.692Z,78.40
2018-07-19T03:52:06.307Z,78.72
2018-07-19T03:54:34.841Z,76.60
2018-07-19T03:57:03.425Z,77.15
2018-07-19T03:59:31.990Z,78.05
2018-07-19T04:02:00.877Z,77.48
2018-07-19T04:04:29.423Z,78.07
2018-07-19T04:06:57.960Z,77.05
2018-07-19T04:09:26.574Z,77.16
2018-07-19T04:11:55.100Z,76.79
2018-07-19T04:14:24.172Z,77.47
2018-07-19T04:16:52.688Z,77.94
2018-07-19T04:19:22.090Z,77.05
2018-07-19T04:21:50.642Z,77.80
2018-07-19T04:24:19.225Z,77.16
2018-07-19T04:26:47.744Z,76.94
2018-07-19T04:29:16.316Z,78.50
2018-07-19T04:31:44.847Z,78.38
2018-07-19T04:34:13.424Z,78.37
2018-07-19T04:36:41.977Z,77.92
2018-07-19T04:39:10.912Z,78.47
2018-07-19T04:41:39.462Z,78.48
2018-07-19T04:44:08.024Z,77.28
2018-07-19T04:46:36.648Z,76.48
2018-07-19T04:49:05.283Z,76.47
2018-07-19T04:51:33.812Z,76.68
2018-07-19T04:54:02.373Z,76.05
2018-07-19T04:56:30.889Z,76.10
2018-07-19T04:58:59.455Z,75.25
2018-07-19T05:01:27.984Z,75.70
2018-07-19T05:03:56.552Z,76.35
2018-07-19T05:06:25.095Z,74.97
2018-07-19T05:08:54.376Z,74.39
2018-07-19T05:11:22.907Z,73.91
2018-07-19T05:13:51.479Z,73.75
2018-07-19T05:16:20.030Z,75.33
2018-07-19T05:18:48.591Z,75.52
2018-07-19T05:21:17.126Z,74.27
2018-07-19T05:23:45.685Z,73.39
2018-07-19T05:26:14.326Z,73.43
2018-07-19T05:28:42.936Z,72.50
2018-07-19T05:31:11.460Z,71.56
2018-07-19T05:33:40.024Z,72.33
2018-07-19T05:36:09.000Z,72.18
2018-07-19T05:38:37.580Z,72.54
2018-07-19T05:41:06.388Z,72.17
2018-07-19T05:43:34.940Z,71.20
2018-07-19T05:46:03.465Z,69.37
2018-07-19T05:48:32.076Z,68.66
2018-07-19T05:51:00.583Z,68.98
2018-07-19T05:53:29.107Z,68.17
2018-07-19T05:55:57.663Z,67.79
2018-07-19T05:58:26.200Z,67.77
2018-07-19T06:00:54.761Z,67.18
2018-07-19T06:03:23.312Z,67.00
2018-07-19T06:05:51.864Z,67.10
2018-07-19T06:08:20.389Z,66.43
2018-07-19T06:10:48.945Z,66.18
2018-07-19T06:13:17.566Z,66.45
2018-07-19T06:15:46.188Z,66.35
2018-07-19T06:18:14.720Z,64.67
2018-07-19T06:20:43.299Z,65.37
2018-07-19T06:23:11.831Z,65.34
2018-07-19T06:25:40.397Z,65.48
2018-07-19T06:28:08.968Z,65.78
2018-07-19T06:30:37.552Z,65.66
2018-07-19T06:33:06.392Z,65.96
2018-07-19T06:35:34.972Z,66.39
2018-07-19T06:38:03.554Z,66.38
2018-07-19T06:40:32.129Z,66.08
2018-07-19T06:43:00.719Z,66.01
2018-07-19T06:45:29.304Z,65.07
2018-07-19T06:47:57.865Z,64.76
2018-07-19T06:50:26.425Z,64.36
2018-07-19T06:52:54.955Z,63.60
2018-07-19T06:55:23.509Z,63.09
2018-07-19T06:57:52.065Z,62.55
2018-07-19T07:00:20.656Z,61.49
2018-07-19T07:02:49.200Z,60.71
2018-07-19T07:05:17.769Z,59.69
2018-07-19T07:07:46.317Z,59.88
2018-07-19T07:10:14.877Z,58.77
2018-07-19T07:12:50.057Z,58.33
2018-07-19T07:15:18.624Z,57.78
2018-07-19T07:17:47.149Z,57.58
2018-07-19T07:20:15.720Z,56.36
2018-07-19T07:22:44.252Z,55.95
2018-07-19T07:25:12.828Z,55.52
2018-07-19T07:27:41.449Z,55.75
2018-07-19T07:30:10.025Z,55.83
2018-07-19T07:32:38.777Z,55.35
2018-07-19T07:35:07.444Z,54.63
2018-07-19T07:37:36.019Z,54.55
2018-07-19T07:40:05.013Z,53.83
2018-07-19T07:42:33.589Z,54.70
2018-07-19T07:45:02.153Z,53.76
2018-07-19T07:47:30.732Z,54.19
2018-07-19T07:49:59.247Z,54.11
2018-07-19T07:52:27.849Z,54.67
2018-07-19T07:54:56.416Z,54.17
2018-07-19T07:57:25.008Z,53.19
2018-07-19T07:59:53.516Z,54.12
2018-07-19T08:02:22.119Z,53.20
2018-07-19T08:04:50.660Z,52.06
2018-07-19T08:07:19.214Z,52.09
2018-07-19T08:09:47.756Z,52.19
2018-07-19T08:12:16.785Z,52.58
2018-07-19T08:14:45.455Z,52.83
2018-07-19T08:17:14.049Z,51.70
2018-07-19T08:19:42.581Z,50.57
2018-07-19T08:22:11.160Z,50.54
2018-07-19T08:24:39.784Z,51.06
2018-07-19T08:27:08.584Z,50.94
2018-07-19T08:29:37.193Z,49.77
2018-07-19T08:32:05.843Z,48.72
2018-07-19T08:34:34.379Z,50.26
2018-07-19T08:37:03.028Z,50.04
2018-07-19T08:39:31.565Z,50.03
2018-07-19T08:42:00.151Z,49.51
2018-07-19T08:44:28.719Z,49.62
2018-07-19T08:47:00.337Z,49.44
2018-07-19T08:49:28.985Z,48.67
2018-07-19T08:51:58.356Z,48.27
2018-07-19T08:54:30.146Z,48.63
2018-07-19T08:57:04.163Z,47.83
2018-07-19T08:59:41.045Z,47.78
2018-07-19T09:02:09.610Z,48.33
2018-07-19T09:04:38.169Z,47.57
2018-07-19T09:07:06.857Z,46.92
2018-07-19T09:09:35.389Z,48.00
2018-07-19T09:12:09.357Z,46.62
2018-07-19T09:14:45.432Z,47.33
2018-07-19T09:17:19.135Z,47.85
2018-07-19T09:19:54.413Z,47.14
2018-07-19T09:22:28.836Z,47.57
2018-07-19T09:25:05.817Z,45.10
2018-07-19T09:27:40.260Z,44.92
2018-07-19T09:30:18.943Z,44.71
2018-07-19T09:32:53.627Z,44.85
2018-07-19T09:35:28.758Z,45.36
2018-07-19T09:38:06.457Z,46.11
2018-07-19T09:40:43.382Z,46.81
2018-07-19T09:43:19.484Z,45.09
2018-07-19T09:45:55.768Z,45.32
2018-07-19T09:48:38.487Z,43.42
2018-07-19T09:51:17.523Z,41.68
2018-07-19T09:53:53.465Z,42.89
2018-07-19T09:59:10.425Z,41.43
2018-07-19T10:01:44.471Z,42.27
2018-07-19T10:04:24.269Z,43.39
2018-07-19T10:07:00.204Z,42.00
2018-07-19T10:09:41.121Z,41.34
2018-07-19T10:12:17.776Z,39.94
2018-07-19T10:14:50.300Z,40.49
2018-07-19T10:17:21.265Z,39.27
2018-07-19T10:19:53.901Z,40.18
2018-07-19T10:22:27.598Z,39.97
2018-07-19T10:24:56.133Z,40.54
2018-07-19T10:27:24.703Z,39.51
2018-07-19T10:29:53.240Z,38.79
2018-07-19T10:32:24.035Z,37.99
2018-07-19T10:34:52.553Z,39.67
2018-07-19T10:37:21.116Z,38.62
2018-07-19T10:39:49.678Z,38.77
2018-07-19T10:42:18.374Z,38.41
2018-07-19T10:44:46.953Z,37.81
2018-07-19T10:47:15.481Z,37.18
2018-07-19T10:49:44.050Z,37.43
2018-07-19T10:52:12.569Z,38.68
2018-07-19T10:54:41.580Z,37.81
2018-07-19T10:57:10.246Z,37.57
2018-07-19T10:59:38.801Z,37.14
2018-07-19T11:02:07.370Z,35.52
2018-07-19T11:04:35.916Z,37.08
2018-07-19T11:07:04.996Z,38.08
2018-07-19T11:09:33.836Z,37.98
2018-07-19T11:12:04.187Z,37.24
2018-07-19T11:14:32.800Z,37.03
2018-07-19T11:17:02.105Z,37.04
2018-07-19T11:19:30.939Z,36.25
2018-07-19T11:22:00.024Z,36.97
2018-07-19T11:24:29.600Z,37.16
2018-07-19T11:27:00.417Z,37.43
2018-07-19T11:29:28.969Z,36.73
2018-07-19T11:31:57.486Z,35.36
2018-07-19T11:34:26.026Z,35.31
2018-07-19T11:36:54.591Z,36.22
2018-07-19T11:39:23.138Z,36.25
2018-07-19T11:41:51.666Z,36.59
2018-07-19T11:44:20.228Z,37.28
2018-07-19T11:46:48.754Z,38.03
2018-07-19T11:49:17.397Z,37.08
2018-07-19T11:51:45.909Z,36.64
2018-07-19T11:54:14.475Z,36.72
2018-07-19T11:56:42.987Z,36.14
2018-07-19T11:59:11.549Z,37.10
2018-07-19T12:01:41.659Z,36.04
2018-07-19T12:04:10.280Z,35.28
2018-07-19T12:06:38.884Z,35.38
2018-07-19T12:09:10.181Z,35.59
2018-07-19T12:11:38.748Z,34.87
2018-07-19T12:14:07.395Z,33.14
2018-07-19T12:16:35.906Z,32.95
2018-07-19T12:19:04.509Z,34.01
2018-07-19T12:21:33.020Z,33.69
2018-07-19T12:24:01.581Z,34.07
2018-07-19T12:26:31.558Z,33.71
2018-07-19T12:29:00.112Z,33.49
2018-07-19T12:31:29.080Z,34.56
2018-07-19T12:33:57.692Z,34.46
2018-07-19T12:36:26.266Z,33.63
2018-07-19T12:38:54.789Z,34.44
2018-07-19T12:41:23.354Z,33.57
2018-07-19T12:43:51.888Z,35.05
2018-07-19T12:46:20.754Z,33.04
2018-07-19T12:48:49.312Z,34.33
2018-07-19T12:51:17.930Z,32.06
2018-07-19T12:53:46.446Z,32.39
2018-07-19T12:56:15.008Z,32.17
2018-07-19T12:58:43.524Z,32.29
2018-07-19T13:01:12.069Z,32.11
2018-07-19T13:03:40.592Z,32.52
2018-07-19T13:06:09.869Z,31.63
2018-07-19T13:08:39.778Z,31.72
2018-07-19T13:11:09.407Z,31.73
2018-07-19T13:13:38.877Z,32.55
2018-07-19T13:16:07.601Z,32.93
2018-07-19T13:18:37.595Z,33.77
2018-07-19T13:21:06.177Z,32.60
2018-07-19T13:23:34.709Z,33.22
2018-07-19T13:26:03.268Z,33.33
2018-07-19T13:28:33.225Z,32.94
2018-07-19T13:31:01.939Z,32.76
2018-07-19T13:33:30.425Z,32.83
2018-07-19T13:36:00.046Z,34.37
2018-07-19T13:38:28.607Z,32.93
2018-07-19T13:40:57.172Z,32.79
2018-07-19T13:43:25.680Z,32.20
2018-07-19T13:45:54.227Z,32.18
2018-07-19T13:48:24.397Z,32.91
2018-07-19T13:50:52.985Z,32.83
2018-07-19T13:53:34.851Z,33.00
2018-07-19T13:56:06.442Z,33.07
2018-07-19T13:58:37.309Z,32.77
2018-07-19T14:01:06.077Z,34.23
2018-07-19T14:03:36.631Z,33.15
2018-07-19T14:06:06.064Z,33.39
2018-07-19T14:08:36.113Z,33.08
2018-07-19T14:11:06.474Z,33.22
2018-07-19T14:13:36.431Z,32.58
2018-07-19T14:16:06.750Z,30.32
2018-07-19T14:18:35.264Z,30.33
2018-07-19T14:21:03.837Z,30.04
2018-07-19T14:23:32.375Z,29.87
2018-07-19T14:26:01.456Z,29.86
2018-07-19T14:28:30.156Z,30.00
2018-07-19T14:30:58.961Z,31.46
2018-07-19T14:33:28.197Z,30.91
2018-07-19T14:36:03.519Z,30.55
2018-07-19T14:38:35.176Z,30.31
2018-07-19T14:41:10.230Z,30.24
2018-07-19T14:43:46.554Z,30.33
2018-07-19T14:46:22.137Z,31.14
2018-07-19T14:48:56.636Z,27.89
2018-07-19T14:51:31.418Z,27.84
2018-07-19T14:54:05.199Z,28.47
2018-07-19T14:56:39.777Z,27.91
2018-07-19T14:59:19.209Z,28.25
2018-07-19T15:01:55.401Z,27.21
2018-07-19T15:04:30.560Z,27.58
2018-07-19T15:07:04.249Z,27.97
2018-07-19T15:09:39.747Z,28.51
2018-07-19T15:12:13.028Z,28.72
2018-07-19T15:14:46.385Z,27.56
2018-07-19T15:17:22.720Z,28.35
2018-07-19T15:19:58.258Z,27.77
2018-07-19T15:22:29.558Z,28.02
2018-07-19T15:25:03.150Z,27.35
2018-07-19T15:27:38.083Z,28.26
2018-07-19T15:30:11.047Z,27.87
2018-07-19T15:32:45.735Z,27.54
2018-07-19T15:35:19.384Z,27.72
2018-07-19T15:37:55.232Z,29.36
2018-07-19T15:40:29.221Z,29.70
2018-07-19T15:43:02.276Z,29.27
2018-07-19T15:45:31.465Z,28.27
2018-07-19T15:48:00.030Z,28.77
2018-07-19T15:50:30.062Z,29.23
2018-07-19T15:52:58.685Z,27.79
2018-07-19T15:55:28.276Z,28.17
2018-07-19T15:57:56.888Z,27.87
2018-07-19T16:00:25.433Z,27.87
2018-07-19T16:02:53.977Z,28.47
2018-07-19T16:05:22.807Z,28.14
2018-07-19T16:07:52.739Z,28.37
2018-07-19T16:10:21.835Z,27.71
2018-07-19T16:12:52.100Z,28.46
2018-07-19T16:15:20.645Z,27.32
2018-07-19T16:17:49.265Z,26.88
2018-07-19T16:20:18.721Z,28.99
2018-07-19T16:22:47.332Z,27.04
2018-07-19T16:25:16.937Z,28.32
2018-07-19T16:27:45.588Z,27.62
2018-07-19T16:30:14.099Z,27.92
2018-07-19T16:32:43.672Z,27.75
2018-07-19T16:35:12.580Z,27.34
2018-07-19T16:37:41.167Z,27.50
2018-07-19T16:40:09.813Z,26.36
2018-07-19T16:42:39.026Z,26.17
2018-07-19T16:45:07.612Z,27.39
2018-07-19T16:47:37.551Z,26.09
2018-07-19T16:50:10.049Z,26.44
2018-07-19T16:52:38.683Z,28.21
2018-07-19T16:55:07.888Z,28.39
2018-07-19T16:57:36.440Z,27.56
2018-07-19T17:00:05.665Z,22.97
2018-07-19T17:02:34.220Z,20.91
2018-07-19T17:05:03.326Z,20.88
2018-07-19T17:07:32.112Z,20.39
2018-07-19T17:10:02.153Z,21.70
2018-07-19T17:12:31.072Z,23.38
2018-07-19T17:14:59.755Z,26.58
2018-07-19T17:17:28.297Z,23.73
2018-07-19T17:19:56.951Z,23.25
2018-07-19T17:22:25.521Z,26.93
2018-07-19T17:24:54.060Z,27.37
2018-07-19T17:27:25.396Z,25.90
2018-07-19T17:29:54.693Z,26.45
2018-07-19T17:32:23.973Z,27.91
2018-07-19T17:34:53.480Z,29.66
2018-07-19T17:37:22.705Z,30.44
2018-07-19T17:39:52.145Z,31.01
2018-07-19T17:42:23.663Z,28.28
2018-07-19T17:44:53.753Z,26.66
2018-07-19T17:47:22.941Z,25.15
2018-07-19T17:49:52.308Z,28.35
2018-07-19T17:52:20.890Z,29.23
2018-07-19T17:54:49.783Z,27.70
2018-07-19T17:57:23.332Z,24.28
2018-07-19T17:59:56.622Z,26.32
2018-07-19T18:02:29.822Z,27.62
2018-07-19T18:05:02.619Z,24.22
2018-07-19T18:07:35.879Z,24.19
2018-07-19T18:10:09.432Z,23.95
2018-07-19T18:12:43.013Z,24.47
2018-07-19T18:15:16.016Z,29.66
2018-07-19T18:17:50.619Z,33.46
2018-07-19T18:20:23.786Z,36.38
2018-07-19T18:22:56.821Z,35.20
2018-07-19T18:25:28.733Z,35.93
2018-07-19T18:28:02.691Z,41.18
2018-07-19T18:30:36.288Z,41.87
2018-07-19T18:33:05.354Z,44.65
2018-07-19T18:35:34.072Z,43.74
2018-07-19T18:38:03.116Z,40.60
2018-07-19T18:40:31.994Z,41.07
2018-07-19T18:43:00.968Z,42.29
2018-07-19T18:45:29.593Z,44.13
2018-07-19T18:47:58.553Z,42.08
2018-07-19T18:50:27.260Z,43.51
2018-07-19T18:52:55.894Z,43.17
2018-07-19T18:55:24.631Z,43.47
2018-07-19T18:57:53.699Z,44.56
2018-07-19T19:00:22.623Z,46.65
2018-07-19T19:02:51.368Z,48.60
2018-07-19T19:05:20.032Z,51.07
2018-07-19T19:07:48.684Z,51.00
2018-07-19T19:10:17.278Z,50.54
2018-07-19T19:12:46.160Z,48.81
2018-07-19T19:15:14.920Z,48.61
2018-07-19T19:17:43.432Z,48.66
2018-07-19T19:20:12.269Z,49.78
2018-07-19T19:22:41.337Z,50.58
2018-07-19T19:25:09.937Z,48.89
2018-07-19T19:27:38.609Z,50.37
2018-07-19T19:30:07.776Z,50.82
2018-07-19T19:32:36.565Z,52.55
2018-07-19T19:35:05.258Z,52.57
2018-07-19T19:37:34.437Z,54.28
2018-07-19T19:40:03.579Z,53.65
2018-07-19T19:42:32.761Z,51.89
2018-07-19T19:45:01.623Z,50.38
2018-07-19T19:47:30.232Z,52.70
2018-07-19T19:49:58.789Z,53.02
2018-07-19T19:52:27.353Z,54.47
2018-07-19T19:54:55.885Z,53.87
2018-07-19T19:57:24.900Z,54.30
2018-07-19T19:59:53.710Z,54.75
2018-07-19T20:02:22.522Z,54.96
2018-07-19T20:04:57.660Z,54.88
2018-07-19T20:07:30.274Z,53.89
2018-07-19T20:10:03.730Z,53.36
2018-07-19T20:12:37.241Z,54.21
2018-07-19T20:15:06.070Z,53.85
2018-07-19T20:17:34.616Z,53.93
2018-07-19T20:22:30.053Z,53.96
2018-07-19T20:24:58.653Z,56.97
2018-07-19T20:27:33.444Z,58.19
2018-07-19T20:30:07.023Z,56.89
2018-07-19T20:32:43.759Z,57.98
2018-07-19T20:35:17.941Z,56.68
2018-07-19T20:37:53.675Z,56.72
2018-07-19T20:40:26.981Z,58.04
2018-07-19T20:43:01.061Z,58.51
2018-07-19T20:45:36.639Z,59.03
2018-07-19T20:48:11.410Z,57.83
2018-07-19T20:50:48.925Z,56.71
2018-07-19T20:53:22.949Z,55.71
2018-07-19T20:55:57.887Z,56.19
2018-07-19T20:58:30.376Z,58.49
2018-07-19T21:01:02.305Z,58.33
2018-07-19T21:03:35.122Z,59.70
2018-07-19T21:06:07.766Z,59.01
2018-07-19T21:08:40.485Z,58.83
2018-07-19T21:11:14.253Z,59.02
2018-07-19T21:13:47.017Z,59.92
2018-07-19T21:16:21.439Z,59.48
2018-07-19T21:18:54.042Z,58.25
2018-07-19T21:21:26.564Z,57.77
2018-07-19T21:24:01.654Z,58.71
2018-07-19T21:26:35.773Z,60.04
2018-07-19T21:29:09.604Z,59.67
2018-07-19T21:31:43.087Z,59.95
2018-07-19T21:34:16.670Z,58.63
2018-07-19T21:36:51.592Z,58.70
2018-07-19T21:39:25.068Z,58.49
2018-07-19T21:41:59.617Z,59.62
2018-07-19T21:44:33.382Z,61.04
2018-07-19T21:47:06.114Z,60.64
2018-07-19T21:49:38.824Z,62.25
2018-07-19T21:52:12.816Z,62.10
2018-07-19T21:54:45.904Z,62.83
2018-07-19T21:57:21.027Z,62.96
2018-07-19T21:59:53.549Z,63.71
2018-07-19T22:02:23.428Z,63.69
2018-07-19T22:04:52.500Z,62.69
2018-07-19T22:07:21.538Z,62.41
2018-07-19T22:09:50.068Z,63.85
2018-07-19T22:12:20.239Z,63.02
2018-07-19T22:14:48.763Z,63.21
2018-07-19T22:17:17.314Z,62.61
2018-07-19T22:19:45.837Z,63.17
2018-07-19T22:22:14.416Z,62.95
2018-07-19T22:24:48.167Z,63.18
2018-07-19T22:27:18.205Z,63.81
2018-07-19T22:29:48.049Z,65.52
2018-07-19T22:32:19.849Z,66.15
2018-07-19T22:34:50.459Z,65.57
2018-07-19T22:37:21.166Z,65.90
2018-07-19T22:39:50.910Z,65.97
2018-07-19T22:42:20.890Z,68.16
2018-07-19T22:44:51.208Z,68.05
2018-07-19T22:47:21.101Z,67.52
2018-07-19T22:49:51.152Z,67.60
2018-07-19T22:52:21.621Z,66.92
2018-07-19T22:54:52.231Z,66.66
2018-07-19T22:57:22.599Z,67.62
2018-07-19T22:59:52.768Z,68.09
2018-07-19T23:02:22.690Z,67.88
2018-07-19T23:04:52.860Z,68.27
2018-07-19T23:07:22.927Z,67.82
2018-07-19T23:09:53.149Z,67.75
2018-07-19T23:12:25.884Z,68.46
2018-07-19T23:14:56.557Z,67.64
2018-07-19T23:17:26.944Z,66.95
2018-07-19T23:19:56.293Z,66.13
2018-07-19T23:22:27.253Z,68.18
2018-07-19T23:24:57.341Z,67.60
2018-07-19T23:27:27.217Z,67.52
2018-07-19T23:29:57.313Z,68.13
2018-07-19T23:32:27.264Z,68.78
2018-07-19T23:34:56.202Z,68.38
2018-07-19T23:37:31.712Z,67.20
2018-07-19T23:40:07.538Z,67.27
2018-07-19T23:42:40.093Z,67.36
2018-07-19T23:45:26.420Z,67.88
2018-07-19T23:47:55.768Z,68.39
2018-07-19T23:50:24.308Z,68.65
2018-07-19T23:52:52.855Z,68.60
2018-07-19T23:55:21.760Z,71.16
2018-07-19T23:57:50.296Z,71.59
